sensor_id;sensor_type;location;lat;lon;timestamp;P1;durP1;ratioP1;P2;durP2;ratioP2
11052;SDS011;55230;42.602;23.470;2024-01-27T00:00:18;4.32;;;1.30;;
11052;SDS011;55230;42.602;23.470;2024-01-27T00:02:43;5.40;;;2.30;;
11052;SDS011;55230;42.602;23.470;2024-01-27T00:05:09;2.97;;;1.83;;
11052;SDS011;55230;42.602;23.470;2024-01-27T00:07:34;2.85;;;1.70;;
11052;SDS011;55230;42.602;23.470;2024-01-27T00:10:01;3.95;;;1.80;;
11052;SDS011;55230;42.602;23.470;2024-01-27T00:12:27;2.50;;;1.80;;
11052;SDS011;55230;42.602;23.470;2024-01-27T00:14:52;4.85;;;1.98;;
11052;SDS011;55230;42.602;23.470;2024-01-27T00:17:18;6.60;;;2.50;;
11052;SDS011;55230;42.602;23.470;2024-01-27T00:19:48;14.27;;;9.27;;
11052;SDS011;55230;42.602;23.470;2024-01-27T00:22:14;9.05;;;4.63;;
11052;SDS011;55230;42.602;23.470;2024-01-27T00:24:40;7.63;;;3.85;;
11052;SDS011;55230;42.602;23.470;2024-01-27T00:27:05;6.15;;;4.00;;
11052;SDS011;55230;42.602;23.470;2024-01-27T00:29:30;12.30;;;4.50;;
11052;SDS011;55230;42.602;23.470;2024-01-27T00:31:56;9.30;;;5.80;;
11052;SDS011;55230;42.602;23.470;2024-01-27T00:34:21;9.02;;;5.07;;
11052;SDS011;55230;42.602;23.470;2024-01-27T00:36:47;9.45;;;5.70;;
11052;SDS011;55230;42.602;23.470;2024-01-27T00:39:15;15.63;;;7.70;;
11052;SDS011;55230;42.602;23.470;2024-01-27T00:41:41;9.07;;;6.00;;
11052;SDS011;55230;42.602;23.470;2024-01-27T00:44:07;7.25;;;4.05;;
11052;SDS011;55230;42.602;23.470;2024-01-27T00:46:32;6.82;;;2.67;;
11052;SDS011;55230;42.602;23.470;2024-01-27T00:48:58;2.42;;;1.95;;
11052;SDS011;55230;42.602;23.470;2024-01-27T00:51:24;4.00;;;2.70;;
11052;SDS011;55230;42.602;23.470;2024-01-27T00:53:49;4.40;;;1.98;;
11052;SDS011;55230;42.602;23.470;2024-01-27T00:56:14;2.35;;;1.88;;
11052;SDS011;55230;42.602;23.470;2024-01-27T00:58:40;4.07;;;2.67;;
11052;SDS011;55230;42.602;23.470;2024-01-27T01:01:06;6.90;;;2.67;;
11052;SDS011;55230;42.602;23.470;2024-01-27T01:03:32;3.75;;;3.35;;
11052;SDS011;55230;42.602;23.470;2024-01-27T01:05:57;13.45;;;5.95;;
11052;SDS011;55230;42.602;23.470;2024-01-27T01:08:23;6.75;;;4.38;;
11052;SDS011;55230;42.602;23.470;2024-01-27T01:10:48;10.98;;;6.10;;
11052;SDS011;55230;42.602;23.470;2024-01-27T01:13:14;6.03;;;3.33;;
11052;SDS011;55230;42.602;23.470;2024-01-27T01:15:39;2.22;;;2.00;;
11052;SDS011;55230;42.602;23.470;2024-01-27T01:18:05;4.55;;;2.42;;
11052;SDS011;55230;42.602;23.470;2024-01-27T01:20:30;3.70;;;3.25;;
11052;SDS011;55230;42.602;23.470;2024-01-27T01:22:57;4.00;;;1.40;;
11052;SDS011;55230;42.602;23.470;2024-01-27T01:25:23;4.07;;;2.30;;
11052;SDS011;55230;42.602;23.470;2024-01-27T01:27:48;5.25;;;1.85;;
11052;SDS011;55230;42.602;23.470;2024-01-27T01:30:15;2.05;;;1.77;;
11052;SDS011;55230;42.602;23.470;2024-01-27T01:32:42;6.28;;;2.08;;
11052;SDS011;55230;42.602;23.470;2024-01-27T01:35:08;3.92;;;2.42;;
11052;SDS011;55230;42.602;23.470;2024-01-27T01:37:35;4.75;;;2.25;;
11052;SDS011;55230;42.602;23.470;2024-01-27T01:40:00;3.75;;;2.67;;
11052;SDS011;55230;42.602;23.470;2024-01-27T01:42:27;2.72;;;2.30;;
11052;SDS011;55230;42.602;23.470;2024-01-27T01:44:54;5.68;;;3.08;;
11052;SDS011;55230;42.602;23.470;2024-01-27T01:47:20;3.53;;;2.03;;
11052;SDS011;55230;42.602;23.470;2024-01-27T01:49:47;6.22;;;2.55;;
11052;SDS011;55230;42.602;23.470;2024-01-27T01:52:13;4.78;;;2.28;;
11052;SDS011;55230;42.602;23.470;2024-01-27T01:54:46;5.78;;;2.45;;
11052;SDS011;55230;42.602;23.470;2024-01-27T01:57:13;2.17;;;1.80;;
11052;SDS011;55230;42.602;23.470;2024-01-27T01:59:39;2.53;;;1.75;;
11052;SDS011;55230;42.602;23.470;2024-01-27T02:02:06;2.25;;;2.03;;
11052;SDS011;55230;42.602;23.470;2024-01-27T02:04:39;5.25;;;2.95;;
11052;SDS011;55230;42.602;23.470;2024-01-27T02:07:05;5.32;;;3.33;;
11052;SDS011;55230;42.602;23.470;2024-01-27T02:09:30;14.38;;;6.35;;
11052;SDS011;55230;42.602;23.470;2024-01-27T02:11:56;9.57;;;5.68;;
11052;SDS011;55230;42.602;23.470;2024-01-27T02:14:21;7.05;;;4.25;;
11052;SDS011;55230;42.602;23.470;2024-01-27T02:16:50;5.20;;;2.55;;
11052;SDS011;55230;42.602;23.470;2024-01-27T02:19:15;6.07;;;2.83;;
11052;SDS011;55230;42.602;23.470;2024-01-27T02:21:41;6.03;;;3.42;;
11052;SDS011;55230;42.602;23.470;2024-01-27T02:24:07;9.70;;;5.15;;
11052;SDS011;55230;42.602;23.470;2024-01-27T02:26:32;11.88;;;6.60;;
11052;SDS011;55230;42.602;23.470;2024-01-27T02:28:58;8.85;;;5.32;;
11052;SDS011;55230;42.602;23.470;2024-01-27T02:31:23;5.80;;;3.75;;
11052;SDS011;55230;42.602;23.470;2024-01-27T02:33:49;7.30;;;4.70;;
11052;SDS011;55230;42.602;23.470;2024-01-27T02:36:15;8.98;;;5.80;;
11052;SDS011;55230;42.602;23.470;2024-01-27T02:38:40;7.35;;;5.25;;
11052;SDS011;55230;42.602;23.470;2024-01-27T02:41:05;10.93;;;5.25;;
11052;SDS011;55230;42.602;23.470;2024-01-27T02:43:31;5.65;;;4.20;;
11052;SDS011;55230;42.602;23.470;2024-01-27T02:45:56;6.60;;;4.43;;
11052;SDS011;55230;42.602;23.470;2024-01-27T02:48:22;7.53;;;4.20;;
11052;SDS011;55230;42.602;23.470;2024-01-27T02:50:47;4.50;;;4.10;;
11052;SDS011;55230;42.602;23.470;2024-01-27T02:53:12;7.45;;;4.57;;
11052;SDS011;55230;42.602;23.470;2024-01-27T02:55:38;5.43;;;4.35;;
11052;SDS011;55230;42.602;23.470;2024-01-27T02:58:04;6.80;;;4.55;;
11052;SDS011;55230;42.602;23.470;2024-01-27T03:00:29;7.57;;;5.50;;
11052;SDS011;55230;42.602;23.470;2024-01-27T03:02:55;12.48;;;7.90;;
11052;SDS011;55230;42.602;23.470;2024-01-27T03:05:23;13.77;;;7.10;;
11052;SDS011;55230;42.602;23.470;2024-01-27T03:07:48;12.30;;;7.95;;
11052;SDS011;55230;42.602;23.470;2024-01-27T03:10:14;17.10;;;8.57;;
11052;SDS011;55230;42.602;23.470;2024-01-27T03:12:39;18.67;;;9.38;;
11052;SDS011;55230;42.602;23.470;2024-01-27T03:15:05;14.25;;;7.97;;
11052;SDS011;55230;42.602;23.470;2024-01-27T03:17:30;14.15;;;7.15;;
11052;SDS011;55230;42.602;23.470;2024-01-27T03:19:56;13.48;;;7.45;;
11052;SDS011;55230;42.602;23.470;2024-01-27T03:22:21;18.90;;;8.73;;
11052;SDS011;55230;42.602;23.470;2024-01-27T03:24:47;16.15;;;10.57;;
11052;SDS011;55230;42.602;23.470;2024-01-27T03:27:12;15.52;;;10.45;;
11052;SDS011;55230;42.602;23.470;2024-01-27T03:29:37;19.02;;;9.60;;
11052;SDS011;55230;42.602;23.470;2024-01-27T03:32:03;16.95;;;9.10;;
11052;SDS011;55230;42.602;23.470;2024-01-27T03:34:29;14.50;;;7.85;;
11052;SDS011;55230;42.602;23.470;2024-01-27T03:36:54;14.02;;;9.48;;
11052;SDS011;55230;42.602;23.470;2024-01-27T03:39:20;16.27;;;8.48;;
11052;SDS011;55230;42.602;23.470;2024-01-27T03:41:45;20.10;;;9.60;;
11052;SDS011;55230;42.602;23.470;2024-01-27T03:44:10;28.17;;;14.02;;
11052;SDS011;55230;42.602;23.470;2024-01-27T03:46:36;30.70;;;12.98;;
11052;SDS011;55230;42.602;23.470;2024-01-27T03:49:04;18.30;;;9.63;;
11052;SDS011;55230;42.602;23.470;2024-01-27T03:51:29;10.35;;;4.95;;
11052;SDS011;55230;42.602;23.470;2024-01-27T03:53:55;7.65;;;3.63;;
11052;SDS011;55230;42.602;23.470;2024-01-27T03:56:21;2.83;;;2.60;;
11052;SDS011;55230;42.602;23.470;2024-01-27T03:58:47;3.65;;;3.20;;
11052;SDS011;55230;42.602;23.470;2024-01-27T04:01:14;7.28;;;2.92;;
11052;SDS011;55230;42.602;23.470;2024-01-27T04:03:40;5.25;;;2.90;;
11052;SDS011;55230;42.602;23.470;2024-01-27T04:06:05;4.40;;;2.25;;
11052;SDS011;55230;42.602;23.470;2024-01-27T04:08:31;2.80;;;2.60;;
11052;SDS011;55230;42.602;23.470;2024-01-27T04:10:56;4.18;;;1.88;;
11052;SDS011;55230;42.602;23.470;2024-01-27T04:13:22;2.42;;;2.15;;
11052;SDS011;55230;42.602;23.470;2024-01-27T04:15:48;2.08;;;1.98;;
11052;SDS011;55230;42.602;23.470;2024-01-27T04:18:16;3.30;;;2.00;;
11052;SDS011;55230;42.602;23.470;2024-01-27T04:20:42;3.58;;;2.40;;
11052;SDS011;55230;42.602;23.470;2024-01-27T04:23:07;5.22;;;3.63;;
11052;SDS011;55230;42.602;23.470;2024-01-27T04:25:33;6.60;;;4.70;;
11052;SDS011;55230;42.602;23.470;2024-01-27T04:27:58;4.82;;;3.20;;
11052;SDS011;55230;42.602;23.470;2024-01-27T04:30:24;4.28;;;3.33;;
11052;SDS011;55230;42.602;23.470;2024-01-27T04:32:50;3.63;;;3.33;;
11052;SDS011;55230;42.602;23.470;2024-01-27T04:35:16;3.67;;;2.60;;
11052;SDS011;55230;42.602;23.470;2024-01-27T04:37:42;2.55;;;1.83;;
11052;SDS011;55230;42.602;23.470;2024-01-27T04:40:09;1.85;;;1.75;;
11052;SDS011;55230;42.602;23.470;2024-01-27T04:42:37;2.22;;;1.98;;
11052;SDS011;55230;42.602;23.470;2024-01-27T04:45:06;1.33;;;1.00;;
11052;SDS011;55230;42.602;23.470;2024-01-27T04:47:32;2.83;;;1.75;;
11052;SDS011;55230;42.602;23.470;2024-01-27T04:49:58;1.80;;;1.35;;
11052;SDS011;55230;42.602;23.470;2024-01-27T04:55:27;1.75;;;1.65;;
11052;SDS011;55230;42.602;23.470;2024-01-27T04:57:52;1.85;;;1.75;;
11052;SDS011;55230;42.602;23.470;2024-01-27T05:00:18;2.70;;;1.92;;
11052;SDS011;55230;42.602;23.470;2024-01-27T05:02:44;3.70;;;1.77;;
11052;SDS011;55230;42.602;23.470;2024-01-27T05:05:10;2.30;;;2.10;;
11052;SDS011;55230;42.602;23.470;2024-01-27T05:07:36;4.43;;;2.30;;
11052;SDS011;55230;42.602;23.470;2024-01-27T05:10:02;3.95;;;3.22;;
11052;SDS011;55230;42.602;23.470;2024-01-27T05:50:21;14.27;;;8.70;;
11052;SDS011;55230;42.602;23.470;2024-01-27T05:56:40;12.30;;;8.55;;
11052;SDS011;55230;42.602;23.470;2024-01-27T05:59:47;17.25;;;12.35;;
11052;SDS011;55230;42.602;23.470;2024-01-27T06:25:44;15.88;;;10.30;;
11052;SDS011;55230;42.602;23.470;2024-01-27T06:28:09;17.45;;;11.68;;
11052;SDS011;55230;42.602;23.470;2024-01-27T06:30:35;24.23;;;14.23;;
11052;SDS011;55230;42.602;23.470;2024-01-27T06:33:00;21.27;;;13.05;;
11052;SDS011;55230;42.602;23.470;2024-01-27T06:35:26;20.75;;;12.50;;
11052;SDS011;55230;42.602;23.470;2024-01-27T06:37:51;41.22;;;24.63;;
11052;SDS011;55230;42.602;23.470;2024-01-27T06:40:16;31.20;;;19.52;;
11052;SDS011;55230;42.602;23.470;2024-01-27T06:42:42;29.42;;;19.75;;
11052;SDS011;55230;42.602;23.470;2024-01-27T06:45:07;16.00;;;11.18;;
11052;SDS011;55230;42.602;23.470;2024-01-27T06:47:35;20.45;;;12.68;;
11052;SDS011;55230;42.602;23.470;2024-01-27T06:50:03;17.85;;;11.48;;
11052;SDS011;55230;42.602;23.470;2024-01-27T06:52:29;11.90;;;6.78;;
11052;SDS011;55230;42.602;23.470;2024-01-27T07:35:15;2.70;;;2.00;;
11052;SDS011;55230;42.602;23.470;2024-01-27T07:37:51;1.30;;;1.20;;
11052;SDS011;55230;42.602;23.470;2024-01-27T07:45:27;1.80;;;1.70;;
11052;SDS011;55230;42.602;23.470;2024-01-27T07:47:56;1.48;;;1.38;;
11052;SDS011;55230;42.602;23.470;2024-01-27T07:50:41;1.55;;;1.45;;
11052;SDS011;55230;42.602;23.470;2024-01-27T07:53:10;1.98;;;1.60;;
11052;SDS011;55230;42.602;23.470;2024-01-27T07:55:39;1.67;;;1.58;;
11052;SDS011;55230;42.602;23.470;2024-01-27T07:58:06;1.77;;;1.67;;
11052;SDS011;55230;42.602;23.470;2024-01-27T08:05:45;1.35;;;1.33;;
11052;SDS011;55230;42.602;23.470;2024-01-27T08:08:11;1.70;;;1.60;;
11052;SDS011;55230;42.602;23.470;2024-01-27T08:10:37;4.03;;;1.80;;
11052;SDS011;55230;42.602;23.470;2024-01-27T08:18:29;1.58;;;1.48;;
11052;SDS011;55230;42.602;23.470;2024-01-27T08:26:35;2.70;;;2.35;;
11052;SDS011;55230;42.602;23.470;2024-01-27T08:29:01;2.95;;;2.33;;
11052;SDS011;55230;42.602;23.470;2024-01-27T08:31:27;2.40;;;2.20;;
11052;SDS011;55230;42.602;23.470;2024-01-27T08:33:55;2.45;;;1.95;;
11052;SDS011;55230;42.602;23.470;2024-01-27T08:36:40;1.95;;;1.75;;
11052;SDS011;55230;42.602;23.470;2024-01-27T08:41:44;1.63;;;1.45;;
11052;SDS011;55230;42.602;23.470;2024-01-27T08:44:09;1.77;;;1.65;;
11052;SDS011;55230;42.602;23.470;2024-01-27T08:56:55;7.13;;;1.95;;
11052;SDS011;55230;42.602;23.470;2024-01-27T08:59:22;1.65;;;1.55;;
11052;SDS011;55230;42.602;23.470;2024-01-27T09:01:54;1.80;;;1.70;;
11052;SDS011;55230;42.602;23.470;2024-01-27T09:04:37;1.73;;;1.63;;
11052;SDS011;55230;42.602;23.470;2024-01-27T09:07:24;2.42;;;2.22;;
11052;SDS011;55230;42.602;23.470;2024-01-27T09:09:55;3.45;;;2.63;;
11052;SDS011;55230;42.602;23.470;2024-01-27T09:12:37;7.18;;;4.18;;
11052;SDS011;55230;42.602;23.470;2024-01-27T09:18:00;1.33;;;1.33;;
11052;SDS011;55230;42.602;23.470;2024-01-27T09:20:26;1.67;;;1.58;;
11052;SDS011;55230;42.602;23.470;2024-01-27T09:22:51;1.60;;;1.35;;
11052;SDS011;55230;42.602;23.470;2024-01-27T09:25:17;2.10;;;2.00;;
11052;SDS011;55230;42.602;23.470;2024-01-27T09:27:42;1.88;;;1.77;;
11052;SDS011;55230;42.602;23.470;2024-01-27T09:30:11;1.35;;;1.25;;
11052;SDS011;55230;42.602;23.470;2024-01-27T09:32:37;2.65;;;1.63;;
11052;SDS011;55230;42.602;23.470;2024-01-27T09:35:04;1.92;;;1.83;;
11052;SDS011;55230;42.602;23.470;2024-01-27T09:37:30;1.25;;;1.15;;
11052;SDS011;55230;42.602;23.470;2024-01-27T09:39:57;1.83;;;1.73;;
11052;SDS011;55230;42.602;23.470;2024-01-27T09:42:25;1.45;;;1.35;;
11052;SDS011;55230;42.602;23.470;2024-01-27T09:47:26;1.48;;;1.38;;
11052;SDS011;55230;42.602;23.470;2024-01-27T09:52:36;1.67;;;1.52;;
11052;SDS011;55230;42.602;23.470;2024-01-27T09:55:03;1.33;;;1.30;;
11052;SDS011;55230;42.602;23.470;2024-01-27T09:57:29;1.70;;;1.60;;
11052;SDS011;55230;42.602;23.470;2024-01-27T09:59:56;1.70;;;1.60;;
11052;SDS011;55230;42.602;23.470;2024-01-27T10:02:22;2.17;;;1.52;;
11052;SDS011;55230;42.602;23.470;2024-01-27T10:04:49;1.92;;;1.70;;
11052;SDS011;55230;42.602;23.470;2024-01-27T10:07:16;2.00;;;1.90;;
11052;SDS011;55230;42.602;23.470;2024-01-27T10:09:51;1.50;;;1.40;;
11052;SDS011;55230;42.602;23.470;2024-01-27T10:17:52;1.70;;;1.60;;
11052;SDS011;55230;42.602;23.470;2024-01-27T10:20:18;1.63;;;1.55;;
11052;SDS011;55230;42.602;23.470;2024-01-27T10:22:44;1.75;;;1.52;;
11052;SDS011;55230;42.602;23.470;2024-01-27T10:25:10;1.33;;;1.33;;
11052;SDS011;55230;42.602;23.470;2024-01-27T10:27:36;1.50;;;1.40;;
11052;SDS011;55230;42.602;23.470;2024-01-27T10:30:02;1.30;;;1.20;;
11052;SDS011;55230;42.602;23.470;2024-01-27T10:32:28;1.30;;;1.30;;
11052;SDS011;55230;42.602;23.470;2024-01-27T10:35:04;1.85;;;1.75;;
11052;SDS011;55230;42.602;23.470;2024-01-27T10:37:33;1.25;;;1.25;;
11052;SDS011;55230;42.602;23.470;2024-01-27T10:40:07;1.50;;;1.50;;
11052;SDS011;55230;42.602;23.470;2024-01-27T10:42:34;1.52;;;1.52;;
11052;SDS011;55230;42.602;23.470;2024-01-27T10:45:01;1.85;;;1.75;;
11052;SDS011;55230;42.602;23.470;2024-01-27T10:47:29;1.50;;;1.50;;
11052;SDS011;55230;42.602;23.470;2024-01-27T10:49:59;1.33;;;1.33;;
11052;SDS011;55230;42.602;23.470;2024-01-27T10:52:30;1.70;;;1.60;;
11052;SDS011;55230;42.602;23.470;2024-01-27T10:55:04;2.03;;;1.92;;
11052;SDS011;55230;42.602;23.470;2024-01-27T10:57:33;1.48;;;1.38;;
11052;SDS011;55230;42.602;23.470;2024-01-27T11:00:02;1.38;;;1.38;;
11052;SDS011;55230;42.602;23.470;2024-01-27T11:02:34;1.17;;;1.17;;
11052;SDS011;55230;42.602;23.470;2024-01-27T11:05:02;1.65;;;1.55;;
11052;SDS011;55230;42.602;23.470;2024-01-27T11:07:32;1.40;;;1.40;;
11052;SDS011;55230;42.602;23.470;2024-01-27T11:09:59;1.15;;;1.15;;
11052;SDS011;55230;42.602;23.470;2024-01-27T11:12:25;1.83;;;1.73;;
11052;SDS011;55230;42.602;23.470;2024-01-27T11:14:52;3.42;;;3.13;;
11052;SDS011;55230;42.602;23.470;2024-01-27T11:17:18;1.02;;;1.02;;
11052;SDS011;55230;42.602;23.470;2024-01-27T11:19:47;1.65;;;1.58;;
11052;SDS011;55230;42.602;23.470;2024-01-27T11:22:25;1.65;;;1.50;;
11052;SDS011;55230;42.602;23.470;2024-01-27T11:27:40;4.40;;;2.63;;
11052;SDS011;55230;42.602;23.470;2024-01-27T11:36:22;1.90;;;1.80;;
11052;SDS011;55230;42.602;23.470;2024-01-27T11:38:50;2.50;;;2.30;;
11052;SDS011;55230;42.602;23.470;2024-01-27T11:41:25;2.10;;;2.00;;
11052;SDS011;55230;42.602;23.470;2024-01-27T11:46:23;2.28;;;2.17;;
11052;SDS011;55230;42.602;23.470;2024-01-27T11:48:48;1.50;;;1.50;;
11052;SDS011;55230;42.602;23.470;2024-01-27T11:51:14;2.33;;;2.22;;
11052;SDS011;55230;42.602;23.470;2024-01-27T11:53:39;2.58;;;2.30;;
11052;SDS011;55230;42.602;23.470;2024-01-27T11:56:05;5.22;;;4.13;;
11052;SDS011;55230;42.602;23.470;2024-01-27T11:58:31;2.22;;;2.13;;
11052;SDS011;55230;42.602;23.470;2024-01-27T12:01:13;1.67;;;1.58;;
11052;SDS011;55230;42.602;23.470;2024-01-27T12:03:48;3.17;;;2.97;;
11052;SDS011;55230;42.602;23.470;2024-01-27T12:06:16;2.17;;;2.08;;
11052;SDS011;55230;42.602;23.470;2024-01-27T12:08:42;2.70;;;2.55;;
11052;SDS011;55230;42.602;23.470;2024-01-27T12:11:16;2.50;;;2.40;;
11052;SDS011;55230;42.602;23.470;2024-01-27T12:13:42;2.30;;;2.20;;
11052;SDS011;55230;42.602;23.470;2024-01-27T12:16:10;2.58;;;2.47;;
11052;SDS011;55230;42.602;23.470;2024-01-27T12:18:45;2.92;;;2.72;;
11052;SDS011;55230;42.602;23.470;2024-01-27T12:21:19;2.05;;;1.92;;
11052;SDS011;55230;42.602;23.470;2024-01-27T12:24:03;1.75;;;1.70;;
11052;SDS011;55230;42.602;23.470;2024-01-27T12:26:30;1.70;;;1.70;;
11052;SDS011;55230;42.602;23.470;2024-01-27T12:28:56;2.10;;;2.00;;
11052;SDS011;55230;42.602;23.470;2024-01-27T12:31:23;2.17;;;2.08;;
11052;SDS011;55230;42.602;23.470;2024-01-27T12:33:55;2.03;;;1.80;;
11052;SDS011;55230;42.602;23.470;2024-01-27T12:36:22;1.60;;;1.50;;
11052;SDS011;55230;42.602;23.470;2024-01-27T12:38:57;1.60;;;1.50;;
11052;SDS011;55230;42.602;23.470;2024-01-27T12:41:24;1.73;;;1.63;;
11052;SDS011;55230;42.602;23.470;2024-01-27T12:43:50;1.95;;;1.88;;
11052;SDS011;55230;42.602;23.470;2024-01-27T12:48:51;2.33;;;2.20;;
11052;SDS011;55230;42.602;23.470;2024-01-27T12:51:32;1.80;;;1.70;;
11052;SDS011;55230;42.602;23.470;2024-01-27T12:54:00;1.95;;;1.85;;
11052;SDS011;55230;42.602;23.470;2024-01-27T12:56:26;1.95;;;1.85;;
11052;SDS011;55230;42.602;23.470;2024-01-27T12:58:52;1.77;;;1.65;;
11052;SDS011;55230;42.602;23.470;2024-01-27T13:01:17;2.00;;;1.90;;
11052;SDS011;55230;42.602;23.470;2024-01-27T13:03:43;2.30;;;1.35;;
11052;SDS011;55230;42.602;23.470;2024-01-27T13:06:08;2.13;;;2.03;;
11052;SDS011;55230;42.602;23.470;2024-01-27T13:11:03;2.03;;;1.92;;
11052;SDS011;55230;42.602;23.470;2024-01-27T13:13:28;2.13;;;2.03;;
11052;SDS011;55230;42.602;23.470;2024-01-27T13:15:54;2.08;;;1.98;;
11052;SDS011;55230;42.602;23.470;2024-01-27T13:18:19;4.28;;;2.03;;
11052;SDS011;55230;42.602;23.470;2024-01-27T13:20:45;1.85;;;1.75;;
11052;SDS011;55230;42.602;23.470;2024-01-27T13:23:10;1.65;;;1.55;;
11052;SDS011;55230;42.602;23.470;2024-01-27T13:25:36;3.60;;;1.73;;
11052;SDS011;55230;42.602;23.470;2024-01-27T13:28:01;5.60;;;3.10;;
11052;SDS011;55230;42.602;23.470;2024-01-27T13:30:27;1.23;;;1.23;;
11052;SDS011;55230;42.602;23.470;2024-01-27T13:32:53;1.70;;;1.60;;
11052;SDS011;55230;42.602;23.470;2024-01-27T13:35:19;1.55;;;1.45;;
11052;SDS011;55230;42.602;23.470;2024-01-27T13:37:44;1.40;;;1.40;;
11052;SDS011;55230;42.602;23.470;2024-01-27T13:40:11;1.52;;;1.42;;
11052;SDS011;55230;42.602;23.470;2024-01-27T13:42:36;1.38;;;1.30;;
11052;SDS011;55230;42.602;23.470;2024-01-27T13:45:02;2.08;;;1.98;;
11052;SDS011;55230;42.602;23.470;2024-01-27T13:47:28;1.58;;;1.48;;
11052;SDS011;55230;42.602;23.470;2024-01-27T13:49:54;1.27;;;1.27;;
11052;SDS011;55230;42.602;23.470;2024-01-27T13:52:20;1.63;;;1.50;;
11052;SDS011;55230;42.602;23.470;2024-01-27T13:54:46;1.40;;;1.30;;
11052;SDS011;55230;42.602;23.470;2024-01-27T13:57:11;1.08;;;1.05;;
11052;SDS011;55230;42.602;23.470;2024-01-27T13:59:37;1.58;;;1.30;;
11052;SDS011;55230;42.602;23.470;2024-01-27T14:02:02;1.90;;;1.80;;
11052;SDS011;55230;42.602;23.470;2024-01-27T14:04:28;1.50;;;1.40;;
11052;SDS011;55230;42.602;23.470;2024-01-27T14:06:54;1.30;;;1.20;;
11052;SDS011;55230;42.602;23.470;2024-01-27T14:09:21;1.52;;;1.17;;
11052;SDS011;55230;42.602;23.470;2024-01-27T14:11:47;1.80;;;1.70;;
11052;SDS011;55230;42.602;23.470;2024-01-27T14:14:12;1.60;;;1.42;;
11052;SDS011;55230;42.602;23.470;2024-01-27T14:16:38;1.63;;;1.52;;
11052;SDS011;55230;42.602;23.470;2024-01-27T14:19:04;2.58;;;1.60;;
11052;SDS011;55230;42.602;23.470;2024-01-27T14:21:30;4.38;;;2.10;;
11052;SDS011;55230;42.602;23.470;2024-01-27T14:23:56;1.85;;;1.27;;
11052;SDS011;55230;42.602;23.470;2024-01-27T14:26:29;2.28;;;1.92;;
11052;SDS011;55230;42.602;23.470;2024-01-27T14:28:54;2.55;;;1.05;;
11052;SDS011;55230;42.602;23.470;2024-01-27T14:31:20;2.88;;;2.60;;
11052;SDS011;55230;42.602;23.470;2024-01-27T14:33:46;1.75;;;1.65;;
11052;SDS011;55230;42.602;23.470;2024-01-27T14:36:12;1.95;;;0.93;;
11052;SDS011;55230;42.602;23.470;2024-01-27T14:38:37;3.80;;;1.55;;
11052;SDS011;55230;42.602;23.470;2024-01-27T14:41:03;1.38;;;1.33;;
11052;SDS011;55230;42.602;23.470;2024-01-27T14:43:30;3.28;;;1.58;;
11052;SDS011;55230;42.602;23.470;2024-01-27T14:45:55;3.33;;;1.20;;
11052;SDS011;55230;42.602;23.470;2024-01-27T14:48:21;1.95;;;1.35;;
11052;SDS011;55230;42.602;23.470;2024-01-27T14:50:46;2.20;;;1.25;;
11052;SDS011;55230;42.602;23.470;2024-01-27T14:53:22;2.03;;;1.83;;
11052;SDS011;55230;42.602;23.470;2024-01-27T14:55:47;2.08;;;1.52;;
11052;SDS011;55230;42.602;23.470;2024-01-27T14:58:13;2.30;;;1.85;;
11052;SDS011;55230;42.602;23.470;2024-01-27T15:00:38;2.85;;;1.63;;
11052;SDS011;55230;42.602;23.470;2024-01-27T15:03:05;1.40;;;1.27;;
11052;SDS011;55230;42.602;23.470;2024-01-27T15:05:31;1.25;;;0.95;;
11052;SDS011;55230;42.602;23.470;2024-01-27T15:08:01;1.23;;;1.10;;
11052;SDS011;55230;42.602;23.470;2024-01-27T15:10:29;3.35;;;1.60;;
11052;SDS011;55230;42.602;23.470;2024-01-27T15:12:55;1.17;;;1.13;;
11052;SDS011;55230;42.602;23.470;2024-01-27T15:15:20;1.40;;;1.30;;
11052;SDS011;55230;42.602;23.470;2024-01-27T15:17:46;3.17;;;1.13;;
11052;SDS011;55230;42.602;23.470;2024-01-27T15:20:11;1.52;;;1.33;;
11052;SDS011;55230;42.602;23.470;2024-01-27T15:22:37;1.88;;;1.40;;
11052;SDS011;55230;42.602;23.470;2024-01-27T15:25:03;3.78;;;1.13;;
11052;SDS011;55230;42.602;23.470;2024-01-27T15:27:30;1.90;;;1.60;;
11052;SDS011;55230;42.602;23.470;2024-01-27T15:29:55;2.38;;;1.58;;
11052;SDS011;55230;42.602;23.470;2024-01-27T15:32:21;2.10;;;1.10;;
11052;SDS011;55230;42.602;23.470;2024-01-27T15:34:48;1.58;;;1.33;;
11052;SDS011;55230;42.602;23.470;2024-01-27T15:37:14;4.93;;;1.55;;
11052;SDS011;55230;42.602;23.470;2024-01-27T15:39:40;1.52;;;1.45;;
11052;SDS011;55230;42.602;23.470;2024-01-27T15:42:08;2.22;;;1.75;;
11052;SDS011;55230;42.602;23.470;2024-01-27T15:44:33;1.33;;;1.15;;
11052;SDS011;55230;42.602;23.470;2024-01-27T15:46:58;5.38;;;3.20;;
11052;SDS011;55230;42.602;23.470;2024-01-27T15:49:27;1.15;;;1.15;;
11052;SDS011;55230;42.602;23.470;2024-01-27T15:51:52;1.63;;;1.52;;
11052;SDS011;55230;42.602;23.470;2024-01-27T15:54:19;1.80;;;1.60;;
11052;SDS011;55230;42.602;23.470;2024-01-27T15:56:45;3.30;;;1.80;;
11052;SDS011;55230;42.602;23.470;2024-01-27T15:59:13;1.88;;;1.67;;
11052;SDS011;55230;42.602;23.470;2024-01-27T16:01:41;1.90;;;1.65;;
11052;SDS011;55230;42.602;23.470;2024-01-27T16:04:07;1.88;;;1.77;;
11052;SDS011;55230;42.602;23.470;2024-01-27T16:06:34;2.15;;;1.73;;
11052;SDS011;55230;42.602;23.470;2024-01-27T16:08:59;2.17;;;1.98;;
11052;SDS011;55230;42.602;23.470;2024-01-27T16:11:25;1.33;;;1.30;;
11052;SDS011;55230;42.602;23.470;2024-01-27T16:13:50;1.35;;;1.10;;
11052;SDS011;55230;42.602;23.470;2024-01-27T16:16:16;3.47;;;1.48;;
11052;SDS011;55230;42.602;23.470;2024-01-27T16:18:44;2.28;;;1.77;;
11052;SDS011;55230;42.602;23.470;2024-01-27T16:21:10;3.38;;;2.05;;
11052;SDS011;55230;42.602;23.470;2024-01-27T16:23:36;2.90;;;1.42;;
11052;SDS011;55230;42.602;23.470;2024-01-27T16:26:01;4.70;;;1.85;;
11052;SDS011;55230;42.602;23.470;2024-01-27T16:28:27;1.50;;;1.40;;
11052;SDS011;55230;42.602;23.470;2024-01-27T16:30:53;1.38;;;1.27;;
11052;SDS011;55230;42.602;23.470;2024-01-27T16:33:19;3.88;;;1.17;;
11052;SDS011;55230;42.602;23.470;2024-01-27T16:35:45;3.63;;;1.20;;
11052;SDS011;55230;42.602;23.470;2024-01-27T16:38:10;2.22;;;1.30;;
11052;SDS011;55230;42.602;23.470;2024-01-27T16:40:36;3.40;;;1.30;;
11052;SDS011;55230;42.602;23.470;2024-01-27T16:43:01;2.38;;;1.15;;
11052;SDS011;55230;42.602;23.470;2024-01-27T16:45:27;2.20;;;1.40;;
11052;SDS011;55230;42.602;23.470;2024-01-27T16:47:57;1.95;;;1.60;;
11052;SDS011;55230;42.602;23.470;2024-01-27T16:50:28;2.05;;;1.40;;
11052;SDS011;55230;42.602;23.470;2024-01-27T16:52:53;3.78;;;1.83;;
11052;SDS011;55230;42.602;23.470;2024-01-27T16:55:19;2.85;;;2.63;;
11052;SDS011;55230;42.602;23.470;2024-01-27T16:57:44;1.92;;;1.65;;
11052;SDS011;55230;42.602;23.470;2024-01-27T17:00:09;3.55;;;1.40;;
11052;SDS011;55230;42.602;23.470;2024-01-27T17:02:36;2.10;;;1.90;;
11052;SDS011;55230;42.602;23.470;2024-01-27T17:05:01;3.65;;;1.63;;
11052;SDS011;55230;42.602;23.470;2024-01-27T17:07:28;2.83;;;1.67;;
11052;SDS011;55230;42.602;23.470;2024-01-27T17:09:58;4.00;;;1.50;;
11052;SDS011;55230;42.602;23.470;2024-01-27T17:12:24;1.70;;;1.45;;
11052;SDS011;55230;42.602;23.470;2024-01-27T17:14:50;7.35;;;2.10;;
11052;SDS011;55230;42.602;23.470;2024-01-27T17:40:26;3.35;;;1.73;;
11052;SDS011;55230;42.602;23.470;2024-01-27T17:42:52;1.73;;;1.63;;
11052;SDS011;55230;42.602;23.470;2024-01-27T17:45:17;2.35;;;1.60;;
11052;SDS011;55230;42.602;23.470;2024-01-27T17:47:42;2.38;;;2.00;;